Baldwin, North Carolina
Current Conditions -  °F | °C
As of 8:15 AM on Thursday 23 Oct 2014 (Local Time) from KGEV Reporting Station
Clear Clear  
Wind Chill: 36°   Ceiling: Unl
Heat Index: 40°   Visibility: 10mi
Dew Point: 32°   Wind: 6mph
Humidity: 72%   Direction: 300°WNW
Pressure: 30.1"   Gusts: 20mph
Location:  36.358°N, 81.4709°W
Report Text: KGEV 231215Z AUTO 30005G17KT 10SM CLR 05/00 A3010 RMK AO2 T00470000
Loading
Personal Weather Stations






























Interactive Weather Map
Tropical Storm Tracking
New forecast layout! Learn more

10-Day Weather Forecast

Advertisements
Track Severe Weather on mobile